Rm Cauca — HKRV8 — position and weather

sailwx.info

Track history (hours):
 
Tides and Currents Weather Stations Pressure Air Temp Water Temp Dewpoint Dewpoint Depression Visibility Wind Speed Wind Dir Waves Ship Positions

Rm Cauca

Last reported at 2018-Feb-25 13:30 UTC. Time now 2018-Feb-25 13:34 UTC.
Position N 10°58' W 074°46'.

Length 32 m.

Type: Tug. MMSI: 730151688.

Date/timePositionNaut miles runAvg speedWind from/ knotsBaromVisibWave heightAir tempDewpointWater temp
2018-Feb-25 13:30N 10°58' W 074°46'0 0.0
2018-Feb-25 13:00N 10°58' W 074°46'0 0.0
2018-Feb-25 12:30N 10°58' W 074°46'0 0.0
2018-Feb-25 12:00N 10°58' W 074°46'0 0.0
2018-Feb-25 11:30N 10°58' W 074°46'0 0.0
2018-Feb-25 11:00N 10°58' W 074°46'0 0.0
2018-Feb-25 10:30N 10°58' W 074°46'0 0.0
2018-Feb-25 10:00N 10°58' W 074°46'0 0.0
2018-Feb-25 09:30N 10°58' W 074°46'0 0.0
2018-Feb-25 09:00N 10°58' W 074°46'0 0.0
2018-Feb-25 08:30N 10°58' W 074°46'0 0.0
2018-Feb-25 08:00N 10°58' W 074°46'0 0.0
2018-Feb-25 07:29N 10°58' W 074°46'0 0.0
2018-Feb-25 07:00N 10°58' W 074°46'0 0.0
2018-Feb-25 06:29N 10°58' W 074°46'0 0.0
2018-Feb-25 06:00N 10°58' W 074°46'0 0.0
2018-Feb-25 05:30N 10°58' W 074°46'0 0.0
2018-Feb-25 05:00N 10°58' W 074°46'0 0.0
2018-Feb-25 04:30N 10°58' W 074°46'0 0.0
2018-Feb-25 04:00N 10°58' W 074°46'0 0.0
2018-Feb-25 03:29N 10°58' W 074°46'0 0.0
2018-Feb-25 02:59N 10°58' W 074°46'0 0.0
2018-Feb-25 02:30N 10°58' W 074°46'0 0.0
2018-Feb-25 02:00N 10°58' W 074°46'0 0.0
2018-Feb-25 01:30N 10°58' W 074°46'0 0.0
2018-Feb-25 00:59N 10°58' W 074°46'0 0.0
2018-Feb-25 00:30N 10°58' W 074°46'0 0.0
2018-Feb-25 00:00N 10°58' W 074°46'0 0.0
2018-Feb-24 23:30N 10°58' W 074°46'3 0.8
2018-Feb-24 20:16N 11°01' W 074°46'3 2.8
2018-Feb-24 19:09N 11°02' W 074°49'0 0.5
2018-Feb-24 19:00N 11°02' W 074°49'0 0.2
2018-Feb-24 17:31N 11°03' W 074°49'0 5.0
2018-Feb-24 17:28N 11°03' W 074°49'6 2.4
2018-Feb-24 15:08N 10°58' W 074°46'0 0.0
2018-Feb-24 15:00N 10°58' W 074°46'0 0.0
2018-Feb-24 13:23N 10°58' W 074°46'0 0.0
2018-Feb-24 12:59N 10°58' W 074°46'0 0.0
2018-Feb-23 16:02N 10°59' W 074°45'0 8.5
2018-Feb-23 16:00N 10°59' W 074°45'4 7.7
2018-Feb-23 15:28N 11°02' W 074°48'0 0.1
2018-Feb-23 14:57N 11°02' W 074°48'0 1.0
2018-Feb-23 14:29N 11°02' W 074°48'1 1.2
2018-Feb-23 13:59N 11°02' W 074°49'511.1
2018-Feb-23 13:30N 10°58' W 074°46'0 0.0
2018-Feb-23 12:58N 10°58' W 074°46'0 0.0
2018-Feb-23 12:28N 10°58' W 074°46'0 0.0
2018-Feb-22 21:02N 10°58' W 074°46'1 1.8
2018-Feb-22 20:40N 10°59' W 074°45'0 0.0
2018-Feb-22 20:26N 10°59' W 074°45'1 0.8
2018-Feb-22 19:47N 10°59' W 074°46'0 1.2
2018-Feb-22 19:30N 10°60' W 074°46'1 2.8
2018-Feb-22 18:59N 10°58' W 074°46'0 0.0
2018-Feb-22 18:29N 10°58' W 074°46'0 0.0
2018-Feb-22 16:45N 10°58' W 074°46'0 0.0
2018-Feb-22 16:27N 10°58' W 074°46'0 0.0
2018-Feb-22 16:00N 10°58' W 074°46'0 0.0
2018-Feb-22 15:30N 10°58' W 074°46'0 0.0
2018-Feb-22 15:00N 10°58' W 074°46'0 0.0
2018-Feb-22 14:30N 10°58' W 074°46'0 0.0
2018-Feb-22 14:00N 10°58' W 074°46'0 0.0
2018-Feb-22 13:30N 10°58' W 074°46'0 0.0
2018-Feb-22 13:00N 10°58' W 074°46'0 0.0
2018-Feb-22 12:30N 10°58' W 074°46'0 0.0
2018-Feb-22 12:00N 10°58' W 074°46'0 0.0
2018-Feb-22 11:30N 10°58' W 074°46'0 0.0
2018-Feb-22 11:00N 10°58' W 074°46'0 0.0
2018-Feb-22 10:30N 10°58' W 074°46'0 0.0
2018-Feb-22 09:59N 10°58' W 074°46'0 0.0
2018-Feb-22 09:29N 10°58' W 074°46'0 0.0
2018-Feb-22 09:00N 10°58' W 074°46'0 0.0
2018-Feb-22 08:28N 10°58' W 074°46'0 0.0
2018-Feb-22 07:59N 10°58' W 074°46'0 0.0
2018-Feb-22 07:28N 10°58' W 074°46'0 0.0
2018-Feb-22 07:00N 10°58' W 074°46'0 0.0
2018-Feb-22 06:30N 10°58' W 074°46'0 0.0
2018-Feb-22 05:59N 10°58' W 074°46'0 0.0
2018-Feb-22 05:29N 10°58' W 074°46'0 0.0
2018-Feb-22 05:00N 10°58' W 074°46'0 0.0
2018-Feb-22 04:30N 10°58' W 074°46'0 0.0
2018-Feb-22 04:00N 10°58' W 074°46'0 0.0
2018-Feb-22 03:30N 10°58' W 074°46'0 0.0
2018-Feb-22 03:00N 10°58' W 074°46'0 0.0
2018-Feb-22 02:29N 10°58' W 074°46'0 0.0
2018-Feb-22 02:00N 10°58' W 074°46'0 0.0
2018-Feb-22 01:29N 10°58' W 074°46'0 0.0
2018-Feb-22 01:00N 10°58' W 074°46'0 0.0
2018-Feb-22 00:30N 10°58' W 074°46'0 0.0
2018-Feb-21 23:58N 10°58' W 074°46'0 0.9
2018-Feb-21 23:30N 10°58' W 074°46'0 0.9
2018-Feb-21 23:00N 10°58' W 074°46'0 0.0
2018-Feb-21 22:30N 10°58' W 074°46'0 0.0
2018-Feb-21 22:00N 10°58' W 074°46'0 0.3
2018-Feb-21 21:30N 10°58' W 074°46'1 2.5
2018-Feb-21 21:00N 10°59' W 074°46'4 6.6
2018-Feb-21 20:27N 11°02' W 074°48'1 1.9
2018-Feb-21 19:51N 11°02' W 074°49'1 2.2
2018-Feb-21 19:30N 11°03' W 074°50'2 4.5
2018-Feb-21 19:00N 11°02' W 074°48'4 6.6
2018-Feb-21 18:28N 10°59' W 074°45'0 0.4
2018-Feb-21 17:41N 10°59' W 074°45'0 0.4
2018-Feb-21 17:28N 10°59' W 074°45'0 0.1
2018-Feb-21 17:00N 10°59' W 074°45'0 1.0
2018-Feb-21 16:30N 10°58' W 074°46'0 0.0
2018-Feb-21 13:46N 10°58' W 074°46'0 0.3
2018-Feb-21 13:30N 10°58' W 074°45'0 0.1
2018-Feb-21 13:00N 10°58' W 074°46'0 0.0
2018-Feb-21 12:30N 10°58' W 074°46'0 0.0
2018-Feb-21 12:00N 10°58' W 074°46'0 0.0
2018-Feb-21 11:30N 10°58' W 074°46'0 0.0
2018-Feb-21 11:00N 10°58' W 074°46'0 0.0
2018-Feb-21 10:30N 10°58' W 074°46'0 0.0
2018-Feb-21 10:00N 10°58' W 074°46'0 0.0
2018-Feb-21 09:30N 10°58' W 074°46'0 0.0
2018-Feb-21 09:00N 10°58' W 074°46'0 0.0
2018-Feb-21 08:30N 10°58' W 074°46'0 0.0
2018-Feb-21 08:00N 10°58' W 074°46'0 0.0
2018-Feb-21 07:29N 10°58' W 074°46'0 0.0
2018-Feb-21 07:00N 10°58' W 074°46'0 0.0
2018-Feb-21 06:30N 10°58' W 074°46'0 0.0
2018-Feb-21 05:59N 10°58' W 074°46'0 0.0
2018-Feb-21 05:30N 10°58' W 074°46'0 0.0
2018-Feb-21 05:00N 10°58' W 074°46'0 0.0
2018-Feb-21 04:29N 10°58' W 074°46'0 0.0
2018-Feb-21 04:00N 10°58' W 074°46'0 0.0
2018-Feb-21 03:29N 10°58' W 074°46'0 0.0
2018-Feb-21 03:00N 10°58' W 074°46'0 0.0
2018-Feb-21 02:30N 10°58' W 074°46'0 0.0
2018-Feb-21 02:00N 10°58' W 074°46'0 0.0
2018-Feb-21 01:29N 10°58' W 074°46'0 0.0
2018-Feb-21 01:00N 10°58' W 074°46'0 0.0
2018-Feb-20 21:43N 10°58' W 074°46'0 0.0
2018-Feb-20 21:30N 10°58' W 074°46'0 0.0
2018-Feb-20 21:00N 10°58' W 074°46'0 0.0
2018-Feb-20 20:30N 10°58' W 074°46'0 0.0
2018-Feb-20 19:59N 10°58' W 074°46'0 0.0
2018-Feb-20 19:30N 10°58' W 074°46'0 0.0
2018-Feb-20 18:53N 10°58' W 074°46'0 0.0
2018-Feb-20 18:30N 10°58' W 074°46'0 0.1
2018-Feb-20 18:00N 10°58' W 074°46'0 0.0
2018-Feb-20 17:31N 10°58' W 074°46'0 0.0
2018-Feb-20 17:00N 10°58' W 074°46'0 0.0
2018-Feb-20 16:30N 10°58' W 074°46'0 0.0
2018-Feb-20 16:00N 10°58' W 074°46'0 0.0
2018-Feb-20 15:30N 10°58' W 074°46'0 0.0
2018-Feb-20 15:00N 10°58' W 074°46'0 0.0
2018-Feb-20 14:30N 10°58' W 074°46'1 2.1
2018-Feb-20 14:00N 10°57' W 074°46'3 0.1
2018-Feb-19 20:17N 10°60' W 074°46'3 5.0
2018-Feb-19 19:40N 11°02' W 074°48'0 0.1
2018-Feb-19 19:30N 11°02' W 074°48'1 1.4
2018-Feb-19 18:58N 11°02' W 074°49'0 0.5
2018-Feb-19 18:27N 11°02' W 074°49'0 0.4
2018-Feb-19 18:00N 11°02' W 074°49'3 6.7
2018-Feb-19 17:30N 11°01' W 074°46'2 4.6
2018-Feb-19 17:00N 10°58' W 074°46'0 0.0
2018-Feb-19 16:29N 10°58' W 074°46'0 1.0
2018-Feb-19 16:00N 10°58' W 074°45'1 2.0
2018-Feb-19 15:29N 10°59' W 074°45'0 0.0
2018-Feb-19 15:00N 10°59' W 074°45'0 0.8
2018-Feb-19 14:30N 10°59' W 074°46'1 1.8
2018-Feb-19 14:00N 10°58' W 074°46'0 0.0
2018-Feb-19 13:30N 10°58' W 074°46'0 0.0
2018-Feb-19 13:00N 10°58' W 074°46'0 0.0
2018-Feb-19 12:29N 10°58' W 074°46'0 0.0
2018-Feb-19 12:00N 10°58' W 074°46'0 0.0
2018-Feb-19 11:30N 10°58' W 074°46'0 0.0
2018-Feb-19 11:00N 10°58' W 074°46'0 0.0
2018-Feb-19 10:30N 10°58' W 074°46'0 0.0
2018-Feb-19 10:00N 10°58' W 074°46'0 0.0
2018-Feb-19 09:30N 10°58' W 074°46'0 0.0
2018-Feb-19 09:00N 10°58' W 074°46'0 0.0
2018-Feb-19 08:30N 10°58' W 074°46'0 0.0
2018-Feb-19 08:00N 10°58' W 074°46'0 0.0
2018-Feb-19 07:30N 10°58' W 074°46'0 0.0
2018-Feb-19 07:00N 10°58' W 074°46'0 0.0
2018-Feb-19 06:30N 10°58' W 074°46'0 0.0
2018-Feb-19 06:00N 10°58' W 074°46'0 0.0
2018-Feb-19 05:30N 10°58' W 074°46'0 0.0
2018-Feb-19 05:00N 10°58' W 074°46'0 0.0
2018-Feb-19 04:29N 10°58' W 074°46'0 0.0
2018-Feb-19 04:00N 10°58' W 074°46'0 0.0
2018-Feb-19 03:30N 10°58' W 074°46'0 0.0
2018-Feb-19 03:00N 10°58' W 074°46'0 0.0
2018-Feb-19 02:30N 10°58' W 074°46'0 0.0
2018-Feb-19 02:00N 10°58' W 074°46'0 0.0
2018-Feb-19 01:30N 10°58' W 074°46'0 0.0
2018-Feb-19 01:00N 10°58' W 074°46'0 0.0
2018-Feb-19 00:30N 10°58' W 074°46'0 0.0
2018-Feb-19 00:00N 10°58' W 074°46'0 0.0
2018-Feb-18 23:30N 10°58' W 074°46'0 0.0
2018-Feb-18 14:41N 10°58' W 074°45'0 0.1
2018-Feb-18 13:42N 10°58' W 074°46'0 0.0
2018-Feb-18 13:30N 10°58' W 074°46'0 0.0
2018-Feb-18 12:59N 10°58' W 074°46'0 0.0
2018-Feb-18 12:30N 10°58' W 074°46'0 0.0
2018-Feb-18 12:00N 10°58' W 074°46'0 0.3
2018-Feb-18 11:30N 10°58' W 074°46'0 0.3
2018-Feb-18 10:58N 10°58' W 074°46'0 0.0
2018-Feb-18 10:30N 10°58' W 074°46'0 0.0
2018-Feb-18 09:58N 10°58' W 074°46'0 0.0
2018-Feb-18 09:30N 10°58' W 074°46'0 0.0
2018-Feb-18 09:00N 10°58' W 074°46'0 0.0
2018-Feb-18 08:25N 10°58' W 074°46'0 0.0
2018-Feb-18 07:18N 10°58' W 074°46'0 0.0
2018-Feb-18 06:58N 10°58' W 074°46'0 0.0
2018-Feb-18 06:30N 10°58' W 074°46'0 0.0
2018-Feb-18 05:55N 10°58' W 074°46'0 0.0
2018-Feb-18 05:29N 10°58' W 074°46'0 0.0
2018-Feb-18 05:00N 10°58' W 074°46'0 0.0
2018-Feb-18 04:30N 10°58' W 074°46'0 0.0
2018-Feb-18 03:58N 10°58' W 074°46'0 0.0
2018-Feb-18 03:20N 10°58' W 074°46'0 0.0
2018-Feb-18 02:59N 10°58' W 074°46'0 0.0
2018-Feb-18 02:30N 10°58' W 074°46'0 0.0
2018-Feb-18 01:56N 10°58' W 074°46'0 0.0
2018-Feb-18 01:12N 10°58' W 074°46'0 0.0
2018-Feb-18 01:00N 10°58' W 074°46'0 0.0
2018-Feb-18 00:30N 10°58' W 074°46'0 0.0
2018-Feb-18 00:00N 10°58' W 074°46'0 0.0
2018-Feb-17 23:30N 10°58' W 074°46'0 0.0
2018-Feb-17 22:47N 10°58' W 074°46'0 0.0
2018-Feb-17 22:30N 10°58' W 074°46'0 0.0
2018-Feb-17 21:58N 10°58' W 074°46'0 0.0
2018-Feb-17 21:28N 10°58' W 074°46'0 0.3
2018-Feb-17 20:58N 10°58' W 074°45'0 0.3
2018-Feb-17 20:30N 10°58' W 074°46'0 0.0
2018-Feb-17 20:00N 10°58' W 074°46'0 0.0
2018-Feb-17 19:29N 10°58' W 074°46'0 0.0
2018-Feb-17 19:00N 10°58' W 074°46'0 0.0
2018-Feb-17 18:30N 10°58' W 074°46'0 0.3
2018-Feb-17 18:00N 10°58' W 074°46'1 1.1
2018-Feb-17 17:30N 10°59' W 074°45'0 0.6
2018-Feb-17 16:59N 10°58' W 074°46'0 0.2
2018-Feb-17 16:30N 10°58' W 074°46'0 0.0
2018-Feb-17 16:00N 10°58' W 074°46'0 0.9
2018-Feb-17 15:30N 10°58' W 074°45'0 0.3
2018-Feb-17 14:58N 10°58' W 074°46'0 0.0
2018-Feb-17 14:30N 10°58' W 074°46'0 0.0
2018-Feb-17 14:00N 10°58' W 074°46'1 2.7
2018-Feb-17 13:29N 10°59' W 074°46'1 2.4
2018-Feb-17 13:00N 10°58' W 074°45'0 0.4
2018-Feb-17 12:30N 10°58' W 074°46'0 0.0
2018-Feb-17 12:00N 10°58' W 074°46'0 0.0
2018-Feb-17 11:30N 10°58' W 074°46'0 0.0
2018-Feb-17 11:00N 10°58' W 074°46'0 0.0
2018-Feb-17 10:30N 10°58' W 074°46'0 0.0
2018-Feb-17 09:59N 10°58' W 074°46'0 0.0
2018-Feb-17 09:30N 10°58' W 074°46'0 0.0
2018-Feb-17 09:00N 10°58' W 074°46'0 0.0
2018-Feb-17 08:30N 10°58' W 074°46'0 0.0
2018-Feb-17 08:00N 10°58' W 074°46'0 0.0
2018-Feb-17 07:30N 10°58' W 074°46'0 0.0
2018-Feb-17 07:00N 10°58' W 074°46'0 0.0
2018-Feb-17 06:30N 10°58' W 074°46'0 0.0
2018-Feb-17 06:00N 10°58' W 074°46'0 0.0
2018-Feb-17 05:30N 10°58' W 074°46'0 0.0
2018-Feb-17 05:00N 10°58' W 074°46'0 0.0
2018-Feb-17 04:30N 10°58' W 074°46'0 0.0
2018-Feb-17 03:59N 10°58' W 074°46'0 0.0
2018-Feb-17 03:30N 10°58' W 074°46'0 0.0
2018-Feb-17 03:00N 10°58' W 074°46'0 0.0
2018-Feb-17 02:31N 10°58' W 074°46'0 0.0
2018-Feb-17 02:00N 10°58' W 074°46'0 0.0
2018-Feb-17 01:30N 10°58' W 074°46'0 0.0
2018-Feb-17 01:00N 10°58' W 074°46'0 0.0
2018-Feb-17 00:30N 10°58' W 074°46'0 0.0
2018-Feb-17 00:00N 10°58' W 074°46'0 0.0
2018-Feb-16 23:30N 10°58' W 074°46'0 0.0
2018-Feb-16 23:00N 10°58' W 074°46'0 0.0
2018-Feb-16 22:30N 10°58' W 074°46'0 0.0
2018-Feb-16 22:00N 10°58' W 074°46'0 0.0
2018-Feb-16 21:30N 10°58' W 074°46'0 0.0
2018-Feb-16 21:00N 10°58' W 074°46'0 0.0
2018-Feb-16 20:30N 10°58' W 074°46'0 0.0
2018-Feb-16 20:00N 10°58' W 074°46'0 0.0
2018-Feb-16 19:30N 10°58' W 074°46'1 1.6
2018-Feb-16 19:00N 10°59' W 074°45'510.0
2018-Feb-16 18:29N 11°02' W 074°49'0 1.0
2018-Feb-16 18:00N 11°02' W 074°49'0 1.0
2018-Feb-16 17:30N 11°02' W 074°49'0 0.0
2018-Feb-16 17:00N 11°02' W 074°49'0 0.1
2018-Feb-16 16:24N 11°02' W 074°49'0 0.0
2018-Feb-16 16:00N 11°02' W 074°49'1 2.5
2018-Feb-16 15:29N 11°02' W 074°48'5 9.2
2018-Feb-16 14:59N 10°58' W 074°46'0 0.0
2018-Feb-16 14:30N 10°58' W 074°46'0 0.0
2018-Feb-16 14:00N 10°58' W 074°46'0 0.0
2018-Feb-16 13:30N 10°58' W 074°46'0 0.0
2018-Feb-16 13:00N 10°58' W 074°46'0 0.0
2018-Feb-16 12:30N 10°58' W 074°46'0 0.0
2018-Feb-16 12:00N 10°58' W 074°46'0 0.0
2018-Feb-16 11:31N 10°58' W 074°46'0 0.0
2018-Feb-16 02:10N 10°58' W 074°46'0 0.0
2018-Feb-16 01:58N 10°58' W 074°46'0 0.0
2018-Feb-16 01:30N 10°58' W 074°46'0 0.0
2018-Feb-16 01:00N 10°58' W 074°46'1 1.5
2018-Feb-16 00:29N 10°57' W 074°45'0 0.3
2018-Feb-15 23:48N 10°57' W 074°45'1 0.4
2018-Feb-15 21:53N 10°58' W 074°45'3 6.0
2018-Feb-15 21:22N 11°01' W 074°47'3 3.1
2018-Feb-15 20:32N 11°02' W 074°49'0 1.6
2018-Feb-15 20:27N 11°02' W 074°49'2 3.2
2018-Feb-15 19:58N 11°02' W 074°48'4 0.8
2018-Feb-15 14:32N 10°58' W 074°46'0 0.2
2018-Feb-15 14:30N 10°58' W 074°46'0 0.0
2018-Feb-15 13:58N 10°58' W 074°46'  
Track history (hours):
 
Tides and Currents Weather Stations Pressure Air Temp Water Temp Dewpoint Dewpoint Depression Visibility Wind Speed Wind Dir Waves Ship Positions

Rm Cauca

Last reported at 2018-Feb-25 13:30 UTC. Time now 2018-Feb-25 13:34 UTC.
Position N 10°58' W 074°46'.

Length 32 m.

Type: Tug. MMSI: 730151688.

Date/timePositionNaut miles runAvg speedWind from/ knotsBaromVisibWave heightAir tempDewpointWater temp
2018-Feb-25 13:30N 10°58' W 074°46'0 0.0
2018-Feb-25 13:00N 10°58' W 074°46'0 0.0
2018-Feb-25 12:30N 10°58' W 074°46'0 0.0
2018-Feb-25 12:00N 10°58' W 074°46'0 0.0
2018-Feb-25 11:30N 10°58' W 074°46'0 0.0
2018-Feb-25 11:00N 10°58' W 074°46'0 0.0
2018-Feb-25 10:30N 10°58' W 074°46'0 0.0
2018-Feb-25 10:00N 10°58' W 074°46'0 0.0
2018-Feb-25 09:30N 10°58' W 074°46'0 0.0
2018-Feb-25 09:00N 10°58' W 074°46'0 0.0
2018-Feb-25 08:30N 10°58' W 074°46'0 0.0
2018-Feb-25 08:00N 10°58' W 074°46'0 0.0
2018-Feb-25 07:29N 10°58' W 074°46'0 0.0
2018-Feb-25 07:00N 10°58' W 074°46'0 0.0
2018-Feb-25 06:29N 10°58' W 074°46'0 0.0
2018-Feb-25 06:00N 10°58' W 074°46'0 0.0
2018-Feb-25 05:30N 10°58' W 074°46'0 0.0
2018-Feb-25 05:00N 10°58' W 074°46'0 0.0
2018-Feb-25 04:30N 10°58' W 074°46'0 0.0
2018-Feb-25 04:00N 10°58' W 074°46'0 0.0
2018-Feb-25 03:29N 10°58' W 074°46'0 0.0
2018-Feb-25 02:59N 10°58' W 074°46'0 0.0
2018-Feb-25 02:30N 10°58' W 074°46'0 0.0
2018-Feb-25 02:00N 10°58' W 074°46'0 0.0
2018-Feb-25 01:30N 10°58' W 074°46'0 0.0
2018-Feb-25 00:59N 10°58' W 074°46'0 0.0
2018-Feb-25 00:30N 10°58' W 074°46'0 0.0
2018-Feb-25 00:00N 10°58' W 074°46'0 0.0
2018-Feb-24 23:30N 10°58' W 074°46'3 0.8
2018-Feb-24 20:16N 11°01' W 074°46'3 2.8
2018-Feb-24 19:09N 11°02' W 074°49'0 0.5
2018-Feb-24 19:00N 11°02' W 074°49'0 0.2
2018-Feb-24 17:31N 11°03' W 074°49'0 5.0
2018-Feb-24 17:28N 11°03' W 074°49'6 2.4
2018-Feb-24 15:08N 10°58' W 074°46'0 0.0
2018-Feb-24 15:00N 10°58' W 074°46'0 0.0
2018-Feb-24 13:23N 10°58' W 074°46'0 0.0
2018-Feb-24 12:59N 10°58' W 074°46'0 0.0
2018-Feb-23 16:02N 10°59' W 074°45'0 8.5
2018-Feb-23 16:00N 10°59' W 074°45'4 7.7
2018-Feb-23 15:28N 11°02' W 074°48'0 0.1
2018-Feb-23 14:57N 11°02' W 074°48'0 1.0
2018-Feb-23 14:29N 11°02' W 074°48'1 1.2
2018-Feb-23 13:59N 11°02' W 074°49'511.1
2018-Feb-23 13:30N 10°58' W 074°46'0 0.0
2018-Feb-23 12:58N 10°58' W 074°46'0 0.0
2018-Feb-23 12:28N 10°58' W 074°46'0 0.0
2018-Feb-22 21:02N 10°58' W 074°46'1 1.8
2018-Feb-22 20:40N 10°59' W 074°45'0 0.0
2018-Feb-22 20:26N 10°59' W 074°45'1 0.8
2018-Feb-22 19:47N 10°59' W 074°46'0 1.2
2018-Feb-22 19:30N 10°60' W 074°46'1 2.8
2018-Feb-22 18:59N 10°58' W 074°46'0 0.0
2018-Feb-22 18:29N 10°58' W 074°46'0 0.0
2018-Feb-22 16:45N 10°58' W 074°46'0 0.0
2018-Feb-22 16:27N 10°58' W 074°46'0 0.0
2018-Feb-22 16:00N 10°58' W 074°46'0 0.0
2018-Feb-22 15:30N 10°58' W 074°46'0 0.0
2018-Feb-22 15:00N 10°58' W 074°46'0 0.0
2018-Feb-22 14:30N 10°58' W 074°46'0 0.0
2018-Feb-22 14:00N 10°58' W 074°46'0 0.0
2018-Feb-22 13:30N 10°58' W 074°46'0 0.0
2018-Feb-22 13:00N 10°58' W 074°46'0 0.0
2018-Feb-22 12:30N 10°58' W 074°46'0 0.0
2018-Feb-22 12:00N 10°58' W 074°46'0 0.0
2018-Feb-22 11:30N 10°58' W 074°46'0 0.0
2018-Feb-22 11:00N 10°58' W 074°46'0 0.0
2018-Feb-22 10:30N 10°58' W 074°46'0 0.0
2018-Feb-22 09:59N 10°58' W 074°46'0 0.0
2018-Feb-22 09:29N 10°58' W 074°46'0 0.0
2018-Feb-22 09:00N 10°58' W 074°46'0 0.0
2018-Feb-22 08:28N 10°58' W 074°46'0 0.0
2018-Feb-22 07:59N 10°58' W 074°46'0 0.0
2018-Feb-22 07:28N 10°58' W 074°46'0 0.0
2018-Feb-22 07:00N 10°58' W 074°46'0 0.0
2018-Feb-22 06:30N 10°58' W 074°46'0 0.0
2018-Feb-22 05:59N 10°58' W 074°46'0 0.0
2018-Feb-22 05:29N 10°58' W 074°46'0 0.0
2018-Feb-22 05:00N 10°58' W 074°46'0 0.0
2018-Feb-22 04:30N 10°58' W 074°46'0 0.0
2018-Feb-22 04:00N 10°58' W 074°46'0 0.0
2018-Feb-22 03:30N 10°58' W 074°46'0 0.0
2018-Feb-22 03:00N 10°58' W 074°46'0 0.0
2018-Feb-22 02:29N 10°58' W 074°46'0 0.0
2018-Feb-22 02:00N 10°58' W 074°46'0 0.0
2018-Feb-22 01:29N 10°58' W 074°46'0 0.0
2018-Feb-22 01:00N 10°58' W 074°46'0 0.0
2018-Feb-22 00:30N 10°58' W 074°46'0 0.0
2018-Feb-21 23:58N 10°58' W 074°46'0 0.9
2018-Feb-21 23:30N 10°58' W 074°46'0 0.9
2018-Feb-21 23:00N 10°58' W 074°46'0 0.0
2018-Feb-21 22:30N 10°58' W 074°46'0 0.0
2018-Feb-21 22:00N 10°58' W 074°46'0 0.3
2018-Feb-21 21:30N 10°58' W 074°46'1 2.5
2018-Feb-21 21:00N 10°59' W 074°46'4 6.6
2018-Feb-21 20:27N 11°02' W 074°48'1 1.9
2018-Feb-21 19:51N 11°02' W 074°49'1 2.2
2018-Feb-21 19:30N 11°03' W 074°50'2 4.5
2018-Feb-21 19:00N 11°02' W 074°48'4 6.6
2018-Feb-21 18:28N 10°59' W 074°45'0 0.4
2018-Feb-21 17:41N 10°59' W 074°45'0 0.4
2018-Feb-21 17:28N 10°59' W 074°45'0 0.1
2018-Feb-21 17:00N 10°59' W 074°45'0 1.0
2018-Feb-21 16:30N 10°58' W 074°46'0 0.0
2018-Feb-21 13:46N 10°58' W 074°46'0 0.3
2018-Feb-21 13:30N 10°58' W 074°45'0 0.1
2018-Feb-21 13:00N 10°58' W 074°46'0 0.0
2018-Feb-21 12:30N 10°58' W 074°46'0 0.0
2018-Feb-21 12:00N 10°58' W 074°46'0 0.0
2018-Feb-21 11:30N 10°58' W 074°46'0 0.0
2018-Feb-21 11:00N 10°58' W 074°46'0 0.0
2018-Feb-21 10:30N 10°58' W 074°46'0 0.0
2018-Feb-21 10:00N 10°58' W 074°46'0 0.0
2018-Feb-21 09:30N 10°58' W 074°46'0 0.0
2018-Feb-21 09:00N 10°58' W 074°46'0 0.0
2018-Feb-21 08:30N 10°58' W 074°46'0 0.0
2018-Feb-21 08:00N 10°58' W 074°46'0 0.0
2018-Feb-21 07:29N 10°58' W 074°46'0 0.0
2018-Feb-21 07:00N 10°58' W 074°46'0 0.0
2018-Feb-21 06:30N 10°58' W 074°46'0 0.0
2018-Feb-21 05:59N 10°58' W 074°46'0 0.0
2018-Feb-21 05:30N 10°58' W 074°46'0 0.0
2018-Feb-21 05:00N 10°58' W 074°46'0 0.0
2018-Feb-21 04:29N 10°58' W 074°46'0 0.0
2018-Feb-21 04:00N 10°58' W 074°46'0 0.0
2018-Feb-21 03:29N 10°58' W 074°46'0 0.0
2018-Feb-21 03:00N 10°58' W 074°46'0 0.0
2018-Feb-21 02:30N 10°58' W 074°46'0 0.0
2018-Feb-21 02:00N 10°58' W 074°46'0 0.0
2018-Feb-21 01:29N 10°58' W 074°46'0 0.0
2018-Feb-21 01:00N 10°58' W 074°46'0 0.0
2018-Feb-20 21:43N 10°58' W 074°46'0 0.0
2018-Feb-20 21:30N 10°58' W 074°46'0 0.0
2018-Feb-20 21:00N 10°58' W 074°46'0 0.0
2018-Feb-20 20:30N 10°58' W 074°46'0 0.0
2018-Feb-20 19:59N 10°58' W 074°46'0 0.0
2018-Feb-20 19:30N 10°58' W 074°46'0 0.0
2018-Feb-20 18:53N 10°58' W 074°46'0 0.0
2018-Feb-20 18:30N 10°58' W 074°46'0 0.1
2018-Feb-20 18:00N 10°58' W 074°46'0 0.0
2018-Feb-20 17:31N 10°58' W 074°46'0 0.0
2018-Feb-20 17:00N 10°58' W 074°46'0 0.0
2018-Feb-20 16:30N 10°58' W 074°46'0 0.0
2018-Feb-20 16:00N 10°58' W 074°46'0 0.0
2018-Feb-20 15:30N 10°58' W 074°46'0 0.0
2018-Feb-20 15:00N 10°58' W 074°46'0 0.0
2018-Feb-20 14:30N 10°58' W 074°46'1 2.1
2018-Feb-20 14:00N 10°57' W 074°46'3 0.1
2018-Feb-19 20:17N 10°60' W 074°46'3 5.0
2018-Feb-19 19:40N 11°02' W 074°48'0 0.1
2018-Feb-19 19:30N 11°02' W 074°48'1 1.4
2018-Feb-19 18:58N 11°02' W 074°49'0 0.5
2018-Feb-19 18:27N 11°02' W 074°49'0 0.4
2018-Feb-19 18:00N 11°02' W 074°49'3 6.7
2018-Feb-19 17:30N 11°01' W 074°46'2 4.6
2018-Feb-19 17:00N 10°58' W 074°46'0 0.0
2018-Feb-19 16:29N 10°58' W 074°46'0 1.0
2018-Feb-19 16:00N 10°58' W 074°45'1 2.0
2018-Feb-19 15:29N 10°59' W 074°45'0 0.0
2018-Feb-19 15:00N 10°59' W 074°45'0 0.8
2018-Feb-19 14:30N 10°59' W 074°46'1 1.8
2018-Feb-19 14:00N 10°58' W 074°46'0 0.0
2018-Feb-19 13:30N 10°58' W 074°46'0 0.0
2018-Feb-19 13:00N 10°58' W 074°46'0 0.0
2018-Feb-19 12:29N 10°58' W 074°46'0 0.0
2018-Feb-19 12:00N 10°58' W 074°46'0 0.0
2018-Feb-19 11:30N 10°58' W 074°46'0 0.0
2018-Feb-19 11:00N 10°58' W 074°46'0 0.0
2018-Feb-19 10:30N 10°58' W 074°46'0 0.0
2018-Feb-19 10:00N 10°58' W 074°46'0 0.0
2018-Feb-19 09:30N 10°58' W 074°46'0 0.0
2018-Feb-19 09:00N 10°58' W 074°46'0 0.0
2018-Feb-19 08:30N 10°58' W 074°46'0 0.0
2018-Feb-19 08:00N 10°58' W 074°46'0 0.0
2018-Feb-19 07:30N 10°58' W 074°46'0 0.0
2018-Feb-19 07:00N 10°58' W 074°46'0 0.0
2018-Feb-19 06:30N 10°58' W 074°46'0 0.0
2018-Feb-19 06:00N 10°58' W 074°46'0 0.0
2018-Feb-19 05:30N 10°58' W 074°46'0 0.0
2018-Feb-19 05:00N 10°58' W 074°46'0 0.0
2018-Feb-19 04:29N 10°58' W 074°46'0 0.0
2018-Feb-19 04:00N 10°58' W 074°46'0 0.0
2018-Feb-19 03:30N 10°58' W 074°46'0 0.0
2018-Feb-19 03:00N 10°58' W 074°46'0 0.0
2018-Feb-19 02:30N 10°58' W 074°46'0 0.0
2018-Feb-19 02:00N 10°58' W 074°46'0 0.0
2018-Feb-19 01:30N 10°58' W 074°46'0 0.0
2018-Feb-19 01:00N 10°58' W 074°46'0 0.0
2018-Feb-19 00:30N 10°58' W 074°46'0 0.0
2018-Feb-19 00:00N 10°58' W 074°46'0 0.0
2018-Feb-18 23:30N 10°58' W 074°46'0 0.0
2018-Feb-18 14:41N 10°58' W 074°45'0 0.1
2018-Feb-18 13:42N 10°58' W 074°46'0 0.0
2018-Feb-18 13:30N 10°58' W 074°46'0 0.0
2018-Feb-18 12:59N 10°58' W 074°46'0 0.0
2018-Feb-18 12:30N 10°58' W 074°46'0 0.0
2018-Feb-18 12:00N 10°58' W 074°46'0 0.3
2018-Feb-18 11:30N 10°58' W 074°46'0 0.3
2018-Feb-18 10:58N 10°58' W 074°46'0 0.0
2018-Feb-18 10:30N 10°58' W 074°46'0 0.0
2018-Feb-18 09:58N 10°58' W 074°46'0 0.0
2018-Feb-18 09:30N 10°58' W 074°46'0 0.0
2018-Feb-18 09:00N 10°58' W 074°46'0 0.0
2018-Feb-18 08:25N 10°58' W 074°46'0 0.0
2018-Feb-18 07:18N 10°58' W 074°46'0 0.0
2018-Feb-18 06:58N 10°58' W 074°46'0 0.0
2018-Feb-18 06:30N 10°58' W 074°46'0 0.0
2018-Feb-18 05:55N 10°58' W 074°46'0 0.0
2018-Feb-18 05:29N 10°58' W 074°46'0 0.0
2018-Feb-18 05:00N 10°58' W 074°46'0 0.0
2018-Feb-18 04:30N 10°58' W 074°46'0 0.0
2018-Feb-18 03:58N 10°58' W 074°46'0 0.0
2018-Feb-18 03:20N 10°58' W 074°46'0 0.0
2018-Feb-18 02:59N 10°58' W 074°46'0 0.0
2018-Feb-18 02:30N 10°58' W 074°46'0 0.0
2018-Feb-18 01:56N 10°58' W 074°46'0 0.0
2018-Feb-18 01:12N 10°58' W 074°46'0 0.0
2018-Feb-18 01:00N 10°58' W 074°46'0 0.0
2018-Feb-18 00:30N 10°58' W 074°46'0 0.0
2018-Feb-18 00:00N 10°58' W 074°46'0 0.0
2018-Feb-17 23:30N 10°58' W 074°46'0 0.0
2018-Feb-17 22:47N 10°58' W 074°46'0 0.0
2018-Feb-17 22:30N 10°58' W 074°46'0 0.0
2018-Feb-17 21:58N 10°58' W 074°46'0 0.0
2018-Feb-17 21:28N 10°58' W 074°46'0 0.3
2018-Feb-17 20:58N 10°58' W 074°45'0 0.3
2018-Feb-17 20:30N 10°58' W 074°46'0 0.0
2018-Feb-17 20:00N 10°58' W 074°46'0 0.0
2018-Feb-17 19:29N 10°58' W 074°46'0 0.0
2018-Feb-17 19:00N 10°58' W 074°46'0 0.0
2018-Feb-17 18:30N 10°58' W 074°46'0 0.3
2018-Feb-17 18:00N 10°58' W 074°46'1 1.1
2018-Feb-17 17:30N 10°59' W 074°45'0 0.6
2018-Feb-17 16:59N 10°58' W 074°46'0 0.2
2018-Feb-17 16:30N 10°58' W 074°46'0 0.0
2018-Feb-17 16:00N 10°58' W 074°46'0 0.9
2018-Feb-17 15:30N 10°58' W 074°45'0 0.3
2018-Feb-17 14:58N 10°58' W 074°46'0 0.0
2018-Feb-17 14:30N 10°58' W 074°46'0 0.0
2018-Feb-17 14:00N 10°58' W 074°46'1 2.7
2018-Feb-17 13:29N 10°59' W 074°46'1 2.4
2018-Feb-17 13:00N 10°58' W 074°45'0 0.4
2018-Feb-17 12:30N 10°58' W 074°46'0 0.0
2018-Feb-17 12:00N 10°58' W 074°46'0 0.0
2018-Feb-17 11:30N 10°58' W 074°46'0 0.0
2018-Feb-17 11:00N 10°58' W 074°46'0 0.0
2018-Feb-17 10:30N 10°58' W 074°46'0 0.0
2018-Feb-17 09:59N 10°58' W 074°46'0 0.0
2018-Feb-17 09:30N 10°58' W 074°46'0 0.0
2018-Feb-17 09:00N 10°58' W 074°46'0 0.0
2018-Feb-17 08:30N 10°58' W 074°46'0 0.0
2018-Feb-17 08:00N 10°58' W 074°46'0 0.0
2018-Feb-17 07:30N 10°58' W 074°46'0 0.0
2018-Feb-17 07:00N 10°58' W 074°46'0 0.0
2018-Feb-17 06:30N 10°58' W 074°46'0 0.0
2018-Feb-17 06:00N 10°58' W 074°46'0 0.0
2018-Feb-17 05:30N 10°58' W 074°46'0 0.0
2018-Feb-17 05:00N 10°58' W 074°46'0 0.0
2018-Feb-17 04:30N 10°58' W 074°46'0 0.0
2018-Feb-17 03:59N 10°58' W 074°46'0 0.0
2018-Feb-17 03:30N 10°58' W 074°46'0 0.0
2018-Feb-17 03:00N 10°58' W 074°46'0 0.0
2018-Feb-17 02:31N 10°58' W 074°46'0 0.0
2018-Feb-17 02:00N 10°58' W 074°46'0 0.0
2018-Feb-17 01:30N 10°58' W 074°46'0 0.0
2018-Feb-17 01:00N 10°58' W 074°46'0 0.0
2018-Feb-17 00:30N 10°58' W 074°46'0 0.0
2018-Feb-17 00:00N 10°58' W 074°46'0 0.0
2018-Feb-16 23:30N 10°58' W 074°46'0 0.0
2018-Feb-16 23:00N 10°58' W 074°46'0 0.0
2018-Feb-16 22:30N 10°58' W 074°46'0 0.0
2018-Feb-16 22:00N 10°58' W 074°46'0 0.0
2018-Feb-16 21:30N 10°58' W 074°46'0 0.0
2018-Feb-16 21:00N 10°58' W 074°46'0 0.0
2018-Feb-16 20:30N 10°58' W 074°46'0 0.0
2018-Feb-16 20:00N 10°58' W 074°46'0 0.0
2018-Feb-16 19:30N 10°58' W 074°46'1 1.6
2018-Feb-16 19:00N 10°59' W 074°45'510.0
2018-Feb-16 18:29N 11°02' W 074°49'0 1.0
2018-Feb-16 18:00N 11°02' W 074°49'0 1.0
2018-Feb-16 17:30N 11°02' W 074°49'0 0.0
2018-Feb-16 17:00N 11°02' W 074°49'0 0.1
2018-Feb-16 16:24N 11°02' W 074°49'0 0.0
2018-Feb-16 16:00N 11°02' W 074°49'1 2.5
2018-Feb-16 15:29N 11°02' W 074°48'5 9.2
2018-Feb-16 14:59N 10°58' W 074°46'0 0.0
2018-Feb-16 14:30N 10°58' W 074°46'0 0.0
2018-Feb-16 14:00N 10°58' W 074°46'0 0.0
2018-Feb-16 13:30N 10°58' W 074°46'0 0.0
2018-Feb-16 13:00N 10°58' W 074°46'0 0.0
2018-Feb-16 12:30N 10°58' W 074°46'0 0.0
2018-Feb-16 12:00N 10°58' W 074°46'0 0.0
2018-Feb-16 11:31N 10°58' W 074°46'0 0.0
2018-Feb-16 02:10N 10°58' W 074°46'0 0.0
2018-Feb-16 01:58N 10°58' W 074°46'0 0.0
2018-Feb-16 01:30N 10°58' W 074°46'0 0.0
2018-Feb-16 01:00N 10°58' W 074°46'1 1.5
2018-Feb-16 00:29N 10°57' W 074°45'0 0.3
2018-Feb-15 23:48N 10°57' W 074°45'1 0.4
2018-Feb-15 21:53N 10°58' W 074°45'3 6.0
2018-Feb-15 21:22N 11°01' W 074°47'3 3.1
2018-Feb-15 20:32N 11°02' W 074°49'0 1.6
2018-Feb-15 20:27N 11°02' W 074°49'2 3.2
2018-Feb-15 19:58N 11°02' W 074°48'4 0.8
2018-Feb-15 14:32N 10°58' W 074°46'0 0.2
2018-Feb-15 14:30N 10°58' W 074°46'0 0.0
2018-Feb-15 13:58N 10°58' W 074°46'  

Dump ship's entire track history